SEGU/GYE METAR and TAF weather

Enter ICAO airport designator
Station Type Date Time Source
SEGU METAR 2019/08/24 06:00 UTC NOAA

SEGU 240600Z 22015KT 9999 SCT030 20/18 Q1012 NOSIG RMK A2990


Station Type Date Time Source
SEGU Decoded METAR 2019/08/24 06:00 UTC NOAA

Station name not available
Aug 24, 2019 - 02:00 AM EDT / 2019.08.24 0600 UTC
Wind: from the SW (220 degrees) at 17 MPH (15 KT):0
Visibility: greater than 7 mile(s):0
Sky conditions: partly cloudy
Temperature: 68 F (20 C)
Dew Point: 64 F (18 C)
Relative Humidity: 88%
Pressure (altimeter): 29.88 in. Hg (1012 hPa)
ob: SEGU 240600Z 22015KT 9999 SCT030 20/18 Q1012 NOSIG RMK A2990
cycle: 6

Station Type Date Time Source
SEGU TAF 2019/08/24 06:55 UTC NOAA

TAF SEGU 240430Z 2406/2506 21010KT CAVOK
BECMG 2409/2410 BKN020 SCT090
BECMG 2411/2412 23005KT
BECMG 2415/2416 FEW020 SCT100
BECMG 2417/2418 14005KT
FM250000 22010KT CAVOK TX29/2419Z TN21/2411Z

Example: see airport list